Kittiwake — WBU8148 — position and weather

sailwx.info

Track history (hours):
 
Tides and Currents Weather Stations Pressure Air Temp Water Temp Dewpoint Dewpoint Depression Visibility Wind Speed Wind Dir Waves Ship Positions

Kittiwake

Owner: EATON, CHARLES M, SEATTLE, WA. More information available from US FCC via Universal Licensing System and Coast Guard Vessel Documentation Center.

Last reported at 2018-Aug-02 19:34 UTC. Time now 2018-Aug-14 15:21 UTC.
Position N 47°39' W 122°23'.
Warning: this ship's position is 11 days out of date.

Length 13 m.

Type: . MMSI: 367343760.

Date/timePositionNaut miles runAvg speedWind from/ knotsBaromVisibWave heightAir tempDewpointWater temp
2018-Aug-02 19:34N 47°39' W 122°23'0 0.1
2018-Aug-02 19:30N 47°39' W 122°23'1 1.6
2018-Aug-02 19:00N 47°40' W 122°24'0 0.0
2018-Aug-02 18:30N 47°40' W 122°24'1 1.7
2018-Aug-02 18:00N 47°41' W 122°25'0 0.3
2018-Aug-02 17:29N 47°41' W 122°25'3 6.2
2018-Aug-02 17:00N 47°44' W 122°26'4 6.6
2018-Aug-02 16:26N 47°47' W 122°27'3 6.9
2018-Aug-02 15:59N 47°50' W 122°28'4 7.3
2018-Aug-02 15:30N 47°54' W 122°30'1 0.0
2018-Jul-31 19:19N 47°55' W 122°30'3 8.8
2018-Jul-31 19:00N 47°52' W 122°28'7 8.6
2018-Jul-31 18:08N 47°45' W 122°26'1 8.3
2018-Jul-31 18:00N 47°44' W 122°25'4 7.8
2018-Jul-31 17:30N 47°40' W 122°24'1 2.3
2018-Jul-31 16:58N 47°39' W 122°23'  
2018-Jul-26 21:24N 47°39' W 122°23'0 0.0
2018-Jul-26 21:00N 47°39' W 122°23'0 0.0
2018-Jul-26 20:30N 47°39' W 122°23'0 0.0
2018-Jul-26 20:00N 47°39' W 122°23'0 0.0
2018-Jul-26 19:29N 47°39' W 122°23'0 0.0
2018-Jul-26 18:59N 47°39' W 122°23'0 0.0
2018-Jul-26 18:29N 47°39' W 122°23'0 0.0
2018-Jul-26 17:59N 47°39' W 122°23'0 0.0
2018-Jul-26 17:29N 47°39' W 122°23'0 0.0
2018-Jul-26 16:59N 47°39' W 122°23'0 0.0
2018-Jul-26 16:29N 47°39' W 122°23'0 0.0
2018-Jul-26 15:59N 47°39' W 122°23'0 0.0
2018-Jul-26 15:29N 47°39' W 122°23'0 0.0
2018-Jul-26 14:59N 47°39' W 122°23'0 0.0
2018-Jul-26 14:29N 47°39' W 122°23'0 0.0
2018-Jul-26 13:59N 47°39' W 122°23'0 0.0
2018-Jul-26 13:29N 47°39' W 122°23'0 0.0
2018-Jul-26 12:59N 47°39' W 122°23'0 0.0
2018-Jul-26 12:29N 47°39' W 122°23'0 0.0
2018-Jul-26 11:59N 47°39' W 122°23'0 0.0
2018-Jul-26 11:29N 47°39' W 122°23'0 0.0
2018-Jul-26 10:59N 47°39' W 122°23'0 0.0
2018-Jul-26 10:29N 47°39' W 122°23'0 0.0
2018-Jul-26 09:59N 47°39' W 122°23'0 0.0
2018-Jul-26 09:29N 47°39' W 122°23'0 0.0
2018-Jul-26 08:53N 47°39' W 122°23'0 0.0
2018-Jul-26 08:29N 47°39' W 122°23'0 0.0
2018-Jul-26 07:59N 47°39' W 122°23'0 0.0
2018-Jul-26 07:29N 47°39' W 122°23'0 0.0
2018-Jul-26 06:59N 47°39' W 122°23'0 0.0
2018-Jul-26 06:29N 47°39' W 122°23'0 0.0
2018-Jul-26 05:59N 47°39' W 122°23'0 0.0
2018-Jul-26 05:29N 47°39' W 122°23'0 0.0
2018-Jul-26 04:59N 47°39' W 122°23'0 0.0
2018-Jul-26 04:29N 47°39' W 122°23'0 0.0
2018-Jul-26 03:59N 47°39' W 122°23'0 0.0
2018-Jul-26 03:29N 47°39' W 122°23'0 0.0
2018-Jul-26 02:59N 47°39' W 122°23'0 0.0
2018-Jul-26 02:29N 47°39' W 122°23'0 0.0
2018-Jul-26 01:59N 47°39' W 122°23'0 0.0
2018-Jul-26 01:29N 47°39' W 122°23'0 0.0
2018-Jul-26 00:59N 47°39' W 122°23'0 0.0
2018-Jul-26 00:29N 47°39' W 122°23'0 0.0
2018-Jul-25 23:59N 47°39' W 122°23'0 0.0
2018-Jul-25 23:29N 47°39' W 122°23'0 0.0
2018-Jul-25 22:59N 47°39' W 122°23'0 0.0
2018-Jul-25 22:29N 47°39' W 122°23'0 0.0
2018-Jul-25 21:59N 47°39' W 122°23'0 0.0
2018-Jul-25 21:29N 47°39' W 122°23'0 0.0
2018-Jul-25 20:59N 47°39' W 122°23'0 0.0
2018-Jul-25 20:29N 47°39' W 122°23'0 0.0
2018-Jul-25 19:59N 47°39' W 122°23'0 0.0
2018-Jul-25 19:29N 47°39' W 122°23'0 0.0
2018-Jul-25 18:59N 47°39' W 122°23'0 0.0
2018-Jul-25 18:29N 47°39' W 122°23'0 0.0
2018-Jul-25 17:59N 47°39' W 122°23'0 0.0
2018-Jul-25 17:29N 47°39' W 122°23'0 0.0
2018-Jul-25 16:59N 47°39' W 122°23'0 0.0
2018-Jul-25 16:29N 47°39' W 122°23'0 0.0
2018-Jul-25 15:59N 47°39' W 122°23'0 0.0
2018-Jul-25 15:29N 47°39' W 122°23'0 0.0
2018-Jul-25 14:59N 47°39' W 122°23'0 0.0
2018-Jul-25 14:29N 47°39' W 122°23'0 0.0
2018-Jul-25 13:59N 47°39' W 122°23'0 0.0
2018-Jul-25 13:29N 47°39' W 122°23'0 0.0
2018-Jul-25 12:59N 47°39' W 122°23'0 0.0
2018-Jul-25 12:26N 47°39' W 122°23'0 0.0
2018-Jul-25 11:59N 47°39' W 122°23'0 0.0
2018-Jul-25 11:29N 47°39' W 122°23'0 0.0
2018-Jul-25 10:59N 47°39' W 122°23'0 0.0
2018-Jul-25 10:26N 47°39' W 122°23'0 0.0
2018-Jul-25 09:59N 47°39' W 122°23'0 0.0
2018-Jul-25 09:29N 47°39' W 122°23'0 0.0
2018-Jul-25 08:59N 47°39' W 122°23'0 0.0
2018-Jul-25 08:29N 47°39' W 122°23'0 0.0
2018-Jul-25 07:59N 47°39' W 122°23'0 0.0
2018-Jul-25 07:29N 47°39' W 122°23'0 0.0
2018-Jul-25 06:59N 47°39' W 122°23'0 0.0
2018-Jul-25 06:29N 47°39' W 122°23'0 0.0
2018-Jul-25 05:59N 47°39' W 122°23'0 0.0
2018-Jul-25 05:29N 47°39' W 122°23'0 0.0
2018-Jul-25 04:59N 47°39' W 122°23'0 0.0
2018-Jul-25 04:29N 47°39' W 122°23'0 0.0
2018-Jul-25 03:59N 47°39' W 122°23'0 0.0
2018-Jul-25 03:29N 47°39' W 122°23'0 0.0
2018-Jul-25 02:59N 47°39' W 122°23'0 0.0
2018-Jul-25 02:28N 47°39' W 122°23'0 0.0
2018-Jul-25 01:58N 47°39' W 122°23'0 0.0
2018-Jul-25 01:29N 47°39' W 122°23'0 0.0
2018-Jul-25 00:59N 47°39' W 122°23'0 0.0
2018-Jul-25 00:28N 47°39' W 122°23'0 0.0
2018-Jul-24 23:58N 47°39' W 122°23'0 0.0
2018-Jul-24 23:29N 47°39' W 122°23'0 0.0
2018-Jul-24 22:58N 47°39' W 122°23'0 0.0
2018-Jul-24 22:28N 47°39' W 122°23'0 0.0
2018-Jul-24 21:58N 47°39' W 122°23'0 0.0
2018-Jul-24 21:28N 47°39' W 122°23'0 0.0
2018-Jul-24 20:58N 47°39' W 122°23'0 0.0
2018-Jul-24 20:28N 47°39' W 122°23'0 0.0
2018-Jul-24 19:58N 47°39' W 122°23'0 0.0
2018-Jul-24 19:28N 47°39' W 122°23'0 0.0
2018-Jul-24 18:58N 47°39' W 122°23'0 0.0
2018-Jul-24 18:28N 47°39' W 122°23'0 0.1
2018-Jul-24 17:58N 47°39' W 122°23'0 0.0
2018-Jul-24 17:28N 47°39' W 122°23'0 0.0
2018-Jul-24 16:59N 47°39' W 122°23'0 0.0
2018-Jul-24 16:28N 47°39' W 122°23'0 0.0
2018-Jul-24 15:59N 47°39' W 122°23'  
Track history (hours):
 
Tides and Currents Weather Stations Pressure Air Temp Water Temp Dewpoint Dewpoint Depression Visibility Wind Speed Wind Dir Waves Ship Positions

Kittiwake

Owner: EATON, CHARLES M, SEATTLE, WA. More information available from US FCC via Universal Licensing System and Coast Guard Vessel Documentation Center.

Last reported at 2018-Aug-02 19:34 UTC. Time now 2018-Aug-14 15:21 UTC.
Position N 47°39' W 122°23'.
Warning: this ship's position is 11 days out of date.

Length 13 m.

Type: . MMSI: 367343760.

Date/timePositionNaut miles runAvg speedWind from/ knotsBaromVisibWave heightAir tempDewpointWater temp
2018-Aug-02 19:34N 47°39' W 122°23'0 0.1
2018-Aug-02 19:30N 47°39' W 122°23'1 1.6
2018-Aug-02 19:00N 47°40' W 122°24'0 0.0
2018-Aug-02 18:30N 47°40' W 122°24'1 1.7
2018-Aug-02 18:00N 47°41' W 122°25'0 0.3
2018-Aug-02 17:29N 47°41' W 122°25'3 6.2
2018-Aug-02 17:00N 47°44' W 122°26'4 6.6
2018-Aug-02 16:26N 47°47' W 122°27'3 6.9
2018-Aug-02 15:59N 47°50' W 122°28'4 7.3
2018-Aug-02 15:30N 47°54' W 122°30'1 0.0
2018-Jul-31 19:19N 47°55' W 122°30'3 8.8
2018-Jul-31 19:00N 47°52' W 122°28'7 8.6
2018-Jul-31 18:08N 47°45' W 122°26'1 8.3
2018-Jul-31 18:00N 47°44' W 122°25'4 7.8
2018-Jul-31 17:30N 47°40' W 122°24'1 2.3
2018-Jul-31 16:58N 47°39' W 122°23'  
2018-Jul-26 21:24N 47°39' W 122°23'0 0.0
2018-Jul-26 21:00N 47°39' W 122°23'0 0.0
2018-Jul-26 20:30N 47°39' W 122°23'0 0.0
2018-Jul-26 20:00N 47°39' W 122°23'0 0.0
2018-Jul-26 19:29N 47°39' W 122°23'0 0.0
2018-Jul-26 18:59N 47°39' W 122°23'0 0.0
2018-Jul-26 18:29N 47°39' W 122°23'0 0.0
2018-Jul-26 17:59N 47°39' W 122°23'0 0.0
2018-Jul-26 17:29N 47°39' W 122°23'0 0.0
2018-Jul-26 16:59N 47°39' W 122°23'0 0.0
2018-Jul-26 16:29N 47°39' W 122°23'0 0.0
2018-Jul-26 15:59N 47°39' W 122°23'0 0.0
2018-Jul-26 15:29N 47°39' W 122°23'0 0.0
2018-Jul-26 14:59N 47°39' W 122°23'0 0.0
2018-Jul-26 14:29N 47°39' W 122°23'0 0.0
2018-Jul-26 13:59N 47°39' W 122°23'0 0.0
2018-Jul-26 13:29N 47°39' W 122°23'0 0.0
2018-Jul-26 12:59N 47°39' W 122°23'0 0.0
2018-Jul-26 12:29N 47°39' W 122°23'0 0.0
2018-Jul-26 11:59N 47°39' W 122°23'0 0.0
2018-Jul-26 11:29N 47°39' W 122°23'0 0.0
2018-Jul-26 10:59N 47°39' W 122°23'0 0.0
2018-Jul-26 10:29N 47°39' W 122°23'0 0.0
2018-Jul-26 09:59N 47°39' W 122°23'0 0.0
2018-Jul-26 09:29N 47°39' W 122°23'0 0.0
2018-Jul-26 08:53N 47°39' W 122°23'0 0.0
2018-Jul-26 08:29N 47°39' W 122°23'0 0.0
2018-Jul-26 07:59N 47°39' W 122°23'0 0.0
2018-Jul-26 07:29N 47°39' W 122°23'0 0.0
2018-Jul-26 06:59N 47°39' W 122°23'0 0.0
2018-Jul-26 06:29N 47°39' W 122°23'0 0.0
2018-Jul-26 05:59N 47°39' W 122°23'0 0.0
2018-Jul-26 05:29N 47°39' W 122°23'0 0.0
2018-Jul-26 04:59N 47°39' W 122°23'0 0.0
2018-Jul-26 04:29N 47°39' W 122°23'0 0.0
2018-Jul-26 03:59N 47°39' W 122°23'0 0.0
2018-Jul-26 03:29N 47°39' W 122°23'0 0.0
2018-Jul-26 02:59N 47°39' W 122°23'0 0.0
2018-Jul-26 02:29N 47°39' W 122°23'0 0.0
2018-Jul-26 01:59N 47°39' W 122°23'0 0.0
2018-Jul-26 01:29N 47°39' W 122°23'0 0.0
2018-Jul-26 00:59N 47°39' W 122°23'0 0.0
2018-Jul-26 00:29N 47°39' W 122°23'0 0.0
2018-Jul-25 23:59N 47°39' W 122°23'0 0.0
2018-Jul-25 23:29N 47°39' W 122°23'0 0.0
2018-Jul-25 22:59N 47°39' W 122°23'0 0.0
2018-Jul-25 22:29N 47°39' W 122°23'0 0.0
2018-Jul-25 21:59N 47°39' W 122°23'0 0.0
2018-Jul-25 21:29N 47°39' W 122°23'0 0.0
2018-Jul-25 20:59N 47°39' W 122°23'0 0.0
2018-Jul-25 20:29N 47°39' W 122°23'0 0.0
2018-Jul-25 19:59N 47°39' W 122°23'0 0.0
2018-Jul-25 19:29N 47°39' W 122°23'0 0.0
2018-Jul-25 18:59N 47°39' W 122°23'0 0.0
2018-Jul-25 18:29N 47°39' W 122°23'0 0.0
2018-Jul-25 17:59N 47°39' W 122°23'0 0.0
2018-Jul-25 17:29N 47°39' W 122°23'0 0.0
2018-Jul-25 16:59N 47°39' W 122°23'0 0.0
2018-Jul-25 16:29N 47°39' W 122°23'0 0.0
2018-Jul-25 15:59N 47°39' W 122°23'0 0.0
2018-Jul-25 15:29N 47°39' W 122°23'0 0.0
2018-Jul-25 14:59N 47°39' W 122°23'0 0.0
2018-Jul-25 14:29N 47°39' W 122°23'0 0.0
2018-Jul-25 13:59N 47°39' W 122°23'0 0.0
2018-Jul-25 13:29N 47°39' W 122°23'0 0.0
2018-Jul-25 12:59N 47°39' W 122°23'0 0.0
2018-Jul-25 12:26N 47°39' W 122°23'0 0.0
2018-Jul-25 11:59N 47°39' W 122°23'0 0.0
2018-Jul-25 11:29N 47°39' W 122°23'0 0.0
2018-Jul-25 10:59N 47°39' W 122°23'0 0.0
2018-Jul-25 10:26N 47°39' W 122°23'0 0.0
2018-Jul-25 09:59N 47°39' W 122°23'0 0.0
2018-Jul-25 09:29N 47°39' W 122°23'0 0.0
2018-Jul-25 08:59N 47°39' W 122°23'0 0.0
2018-Jul-25 08:29N 47°39' W 122°23'0 0.0
2018-Jul-25 07:59N 47°39' W 122°23'0 0.0
2018-Jul-25 07:29N 47°39' W 122°23'0 0.0
2018-Jul-25 06:59N 47°39' W 122°23'0 0.0
2018-Jul-25 06:29N 47°39' W 122°23'0 0.0
2018-Jul-25 05:59N 47°39' W 122°23'0 0.0
2018-Jul-25 05:29N 47°39' W 122°23'0 0.0
2018-Jul-25 04:59N 47°39' W 122°23'0 0.0
2018-Jul-25 04:29N 47°39' W 122°23'0 0.0
2018-Jul-25 03:59N 47°39' W 122°23'0 0.0
2018-Jul-25 03:29N 47°39' W 122°23'0 0.0
2018-Jul-25 02:59N 47°39' W 122°23'0 0.0
2018-Jul-25 02:28N 47°39' W 122°23'0 0.0
2018-Jul-25 01:58N 47°39' W 122°23'0 0.0
2018-Jul-25 01:29N 47°39' W 122°23'0 0.0
2018-Jul-25 00:59N 47°39' W 122°23'0 0.0
2018-Jul-25 00:28N 47°39' W 122°23'0 0.0
2018-Jul-24 23:58N 47°39' W 122°23'0 0.0
2018-Jul-24 23:29N 47°39' W 122°23'0 0.0
2018-Jul-24 22:58N 47°39' W 122°23'0 0.0
2018-Jul-24 22:28N 47°39' W 122°23'0 0.0
2018-Jul-24 21:58N 47°39' W 122°23'0 0.0
2018-Jul-24 21:28N 47°39' W 122°23'0 0.0
2018-Jul-24 20:58N 47°39' W 122°23'0 0.0
2018-Jul-24 20:28N 47°39' W 122°23'0 0.0
2018-Jul-24 19:58N 47°39' W 122°23'0 0.0
2018-Jul-24 19:28N 47°39' W 122°23'0 0.0
2018-Jul-24 18:58N 47°39' W 122°23'0 0.0
2018-Jul-24 18:28N 47°39' W 122°23'0 0.1
2018-Jul-24 17:58N 47°39' W 122°23'0 0.0
2018-Jul-24 17:28N 47°39' W 122°23'0 0.0
2018-Jul-24 16:59N 47°39' W 122°23'0 0.0
2018-Jul-24 16:28N 47°39' W 122°23'0 0.0
2018-Jul-24 15:59N 47°39' W 122°23'  

Dump ship's entire track history